Terminal Aerodrome Forecast
Issued by NWS

Home | Current Version | Previous Version | Text Only | Print | Product List | Glossary On
Versions: 1 2 3 4 5 6 7 8 9 10 11 12 13 14
387
FTUS44 KLIX 210520
TAFMCB
TAF
KMCB 210520Z 2106/2206 00000KT P6SM SKC
     FM210800 00000KT 4SM BR FEW015 SCT140
      TEMPO 2109/2113 2SM BR BKN013
     FM211300 00000KT 5SM BR BKN010 BKN100
     FM211400 VRB03KT P6SM SCT015
     FM220100 00000KT P6SM FEW110=

USA.gov is the U.S. government's official web portal to all federal, state and local government web resources and services.